Time;durP1;ratioP1;P1;durP2;ratioP2;P2;SDS_P1;SDS_P2;PMS_P1;PMS_P2;Temp;Humidity;BMP_temperature;BMP_pressure;BME280_temperature;BME280_humidity;BME280_pressure;Samples;Min_cycle;Max_cycle;Signal;HPM_P1;HPM_P2
2024/03/04 00:01:09;;;;;;;14.38;6.75;;;;;;;8.03;64.09;99076.81;10342339;28;20042;-57
2024/03/04 00:06:10;;;;;;;34.88;7.55;;;;;;;8.01;63.99;99081.53;10346201;28;20073;-57
2024/03/04 00:11:12;;;;;;;15.43;7.97;;;;;;;7.95;63.80;99080.44;10343600;28;20058;-57
2024/03/04 00:16:13;;;;;;;17.40;7.43;;;;;;;7.95;64.13;99079.63;10346810;28;20058;-56
2024/03/04 00:21:15;;;;;;;18.80;8.10;;;;;;;7.95;63.90;99093.00;10347708;28;20432;-57
2024/03/04 00:26:17;;;;;;;16.80;7.82;;;;;;;7.90;64.36;99098.13;10343341;28;20054;-56
2024/03/04 00:31:18;;;;;;;17.00;8.00;;;;;;;7.88;64.34;99100.16;10338597;28;20042;-56
2024/03/04 00:36:24;;;;;;;15.50;6.70;;;;;;;7.84;64.88;99117.56;10346122;28;20544;-58
2024/03/04 00:41:26;;;;;;;16.63;7.75;;;;;;;7.81;64.79;99117.97;10343473;28;20049;-56
2024/03/04 00:46:27;;;;;;;18.65;8.25;;;;;;;7.77;64.72;99133.56;10345277;28;20050;-56
2024/03/04 00:51:29;;;;;;;21.02;8.30;;;;;;;7.71;64.67;99139.66;10336988;28;20398;-57
2024/03/04 00:56:30;;;;;;;21.83;8.50;;;;;;;7.71;64.80;99137.81;10343349;28;20042;-56
2024/03/04 01:01:32;;;;;;;21.33;9.98;;;;;;;7.69;65.02;99139.84;10338979;28;20049;-56
2024/03/04 01:06:35;;;;;;;20.85;8.40;;;;;;;7.71;64.66;99153.03;10343267;28;20054;-56
2024/03/04 01:11:37;;;;;;;18.08;8.93;;;;;;;7.67;65.26;99149.09;10324226;28;20065;-57
2024/03/04 01:16:41;;;;;;;20.25;9.07;;;;;;;7.63;65.14;99164.66;10305062;28;20109;-56
2024/03/04 01:21:42;;;;;;;20.08;8.63;;;;;;;7.53;65.72;99162.28;10299007;28;20070;-56
2024/03/04 01:26:44;;;;;;;18.58;8.77;;;;;;;7.57;65.08;99165.41;10302482;28;20046;-56
2024/03/04 01:31:46;;;;;;;23.40;9.77;;;;;;;7.57;65.52;99183.31;10298689;28;20070;-57
2024/03/04 01:36:47;;;;;;;17.95;9.40;;;;;;;7.58;65.32;99185.78;10298573;28;20055;-57
2024/03/04 01:41:49;;;;;;;22.92;10.63;;;;;;;7.60;65.54;99197.13;10297067;28;20050;-58
2024/03/04 01:46:50;;;;;;;19.52;9.18;;;;;;;7.59;65.33;99198.16;10303163;28;20057;-58
2024/03/04 01:51:52;;;;;;;22.95;10.13;;;;;;;7.58;65.85;99191.13;10297858;28;20156;-58
2024/03/04 01:56:54;;;;;;;17.88;8.60;;;;;;;7.55;65.36;99210.22;10299648;28;20152;-58
2024/03/04 02:01:56;;;;;;;18.33;7.97;;;;;;;7.48;65.89;99214.63;10297239;28;20116;-58
2024/03/04 02:06:59;;;;;;;20.48;8.77;;;;;;;7.45;66.12;99220.38;10300469;28;20160;-57
2024/03/04 02:12:03;;;;;;;18.85;8.55;;;;;;;7.40;65.65;99228.09;10297856;28;20070;-58
2024/03/04 02:17:07;;;;;;;31.92;15.30;;;;;;;7.36;66.20;99243.69;10302488;28;20089;-60
2024/03/04 02:22:10;;;;;;;48.00;18.10;;;;;;;7.73;66.90;99233.91;10301504;28;20105;-59
2024/03/04 02:27:11;;;;;;;48.00;19.77;;;;;;;8.17;67.23;99227.66;10297748;28;20498;-57
2024/03/04 02:32:13;;;;;;;49.00;20.65;;;;;;;8.57;67.55;99243.38;10295826;28;20528;-58
2024/03/04 02:37:14;;;;;;;49.00;20.67;;;;;;;8.90;68.22;99233.78;10297231;28;20050;-58
2024/03/04 02:42:17;;;;;;;44.25;19.25;;;;;;;9.17;68.68;99242.06;10293174;28;20066;-58
2024/03/04 02:47:18;;;;;;;39.25;18.20;;;;;;;9.43;68.65;99252.16;10300376;28;20061;-58
2024/03/04 02:52:20;;;;;;;45.03;20.25;;;;;;;9.66;68.41;99257.28;10292380;28;20383;-58
2024/03/04 02:57:21;;;;;;;43.75;20.80;;;;;;;9.81;68.50;99267.06;10297364;28;20133;-59
2024/03/04 03:02:23;;;;;;;44.55;21.27;;;;;;;9.99;68.68;99272.75;10297600;28;20136;-57
2024/03/04 03:07:24;;;;;;;50.05;22.58;;;;;;;10.10;69.01;99277.53;10297244;28;20066;-58
2024/03/04 03:12:26;;;;;;;50.30;24.83;;;;;;;10.21;69.09;99280.66;10300196;28;20054;-58
2024/03/04 03:17:28;;;;;;;57.58;24.33;;;;;;;10.33;68.39;99281.81;10295801;28;20051;-58
2024/03/04 03:22:30;;;;;;;53.95;22.77;;;;;;;10.36;68.58;99273.31;10301230;28;20055;-58
2024/03/04 03:27:31;;;;;;;55.83;24.38;;;;;;;10.42;68.91;99277.88;10304691;28;20137;-58
2024/03/04 03:32:36;;;;;;;56.55;26.23;;;;;;;10.49;69.16;99281.44;10306818;28;20054;-59
2024/03/04 03:37:37;;;;;;;58.65;26.23;;;;;;;10.55;68.60;99287.88;10305959;28;20077;-58
2024/03/04 03:42:40;;;;;;;64.63;25.48;;;;;;;10.57;68.75;99290.34;10303988;28;20186;-58
2024/03/04 03:47:42;;;;;;;63.83;25.58;;;;;;;10.59;69.14;99290.97;10301517;28;20390;-58
2024/03/04 03:52:43;;;;;;;60.22;24.77;;;;;;;10.60;68.82;99293.44;10302213;28;20046;-58
2024/03/04 03:57:45;;;;;;;62.83;26.38;;;;;;;10.59;69.22;99313.31;10297684;28;20058;-58
2024/03/04 04:02:59;;;;;;;64.28;26.73;;;;;;;10.62;69.17;99320.94;10302395;28;20502;-59
2024/03/04 04:08:00;;;;;;;67.00;27.63;;;;;;;10.59;69.51;99317.84;10304490;28;20052;-58
2024/03/04 04:13:02;;;;;;;59.75;23.73;;;;;;;10.60;69.65;99323.00;10303433;28;20050;-59
2024/03/04 04:18:04;;;;;;;52.53;23.30;;;;;;;10.59;69.59;99329.44;10299276;28;20102;-58
2024/03/04 04:23:05;;;;;;;56.45;22.92;;;;;;;10.58;69.64;99333.13;10300398;28;20125;-58
2024/03/04 04:28:07;;;;;;;56.25;22.08;;;;;;;10.56;69.47;99347.81;10305175;28;20053;-59
2024/03/04 04:33:08;;;;;;;56.95;24.23;;;;;;;10.52;69.92;99348.22;10303099;28;20086;-59
2024/03/04 04:38:10;;;;;;;55.53;22.00;;;;;;;10.49;69.80;99356.66;10303212;28;20046;-59
2024/03/04 04:43:11;;;;;;;56.38;21.73;;;;;;;10.49;69.28;99353.97;10296165;28;20039;-59
2024/03/04 04:48:14;;;;;;;57.92;21.85;;;;;;;10.49;69.56;99370.09;10300746;28;20042;-58
2024/03/04 04:53:15;;;;;;;49.42;21.23;;;;;;;10.41;69.76;99375.66;10286874;28;20516;-57
2024/03/04 04:58:17;;;;;;;52.47;20.10;;;;;;;10.42;69.71;99377.28;10300911;28;20060;-57
2024/03/04 05:03:19;;;;;;;50.20;19.85;;;;;;;10.40;69.27;99387.41;10284810;28;20109;-56
2024/03/04 05:08:40;;;;;;;43.13;18.13;;;;;;;10.43;69.36;99397.78;10303256;28;20054;-57
2024/03/04 05:13:42;;;;;;;45.15;18.48;;;;;;;10.41;69.25;99407.06;10303834;28;20060;-56
2024/03/04 05:18:44;;;;;;;40.85;18.48;;;;;;;10.35;69.45;99414.06;10298618;28;20074;-55
2024/03/04 05:23:45;;;;;;;43.85;19.02;;;;;;;10.32;69.26;99428.69;10301021;28;20046;-54
2024/03/04 05:28:47;;;;;;;48.40;19.17;;;;;;;10.28;69.72;99437.31;10298217;28;20053;-55
2024/03/04 05:33:48;;;;;;;45.47;17.70;;;;;;;10.31;69.09;99443.16;10302437;28;20110;-55
2024/03/04 05:38:49;;;;;;;47.25;19.40;;;;;;;10.27;69.76;99460.66;10302857;28;20053;-54
2024/03/04 05:43:51;;;;;;;46.42;16.92;;;;;;;10.25;69.61;99457.34;10300910;28;20719;-55
2024/03/04 05:48:52;;;;;;;48.35;16.90;;;;;;;10.29;69.65;99458.63;10295104;28;20053;-57
2024/03/04 05:53:54;;;;;;;45.75;18.90;;;;;;;10.25;69.55;99459.22;10302478;28;20053;-55
2024/03/04 05:58:55;;;;;;;45.60;18.15;;;;;;;10.27;69.42;99467.91;10300716;28;20054;-55
2024/03/04 06:03:57;;;;;;;47.42;18.30;;;;;;;10.33;69.47;99480.59;10318524;28;20039;-59
2024/03/04 06:08:58;;;;;;;41.75;18.05;;;;;;;10.43;69.65;99494.50;10324012;28;20086;-57
2024/03/04 06:14:00;;;;;;;50.28;19.08;;;;;;;10.57;69.24;99492.72;10323851;28;20473;-56
2024/03/04 06:19:02;;;;;;;45.03;17.83;;;;;;;10.74;68.92;99505.84;10325239;28;20061;-58
2024/03/04 06:24:03;;;;;;;48.00;20.20;;;;;;;10.96;68.30;99523.56;10317861;28;20138;-63
2024/03/04 06:29:06;;;;;;;42.60;17.67;;;;;;;11.13;68.34;99524.03;10312942;28;20082;-63
2024/03/04 06:34:07;;;;;;;43.72;18.63;;;;;;;11.13;68.22;99534.78;10305845;28;20716;-60
2024/03/04 06:39:24;;;;;;;38.97;17.40;;;;;;;11.22;67.65;99538.16;10305231;28;20046;-64
2024/03/04 06:44:25;;;;;;;42.00;16.60;;;;;;;11.34;67.98;99551.88;10307533;28;20052;-64
2024/03/04 06:49:27;;;;;;;42.05;17.73;;;;;;;11.50;67.30;99563.09;10300429;28;20042;-64
2024/03/04 06:54:28;;;;;;;39.55;17.55;;;;;;;11.56;67.34;99563.34;10300141;28;20077;-63
2024/03/04 06:59:30;;;;;;;37.15;15.43;;;;;;;11.55;67.17;99573.25;10313765;28;20387;-63
2024/03/04 07:04:31;;;;;;;33.85;15.25;;;;;;;11.67;67.02;99578.88;10292945;28;20073;-64
2024/03/04 07:09:33;;;;;;;34.88;14.27;;;;;;;11.65;66.92;99586.34;10308693;28;20066;-63
2024/03/04 07:14:35;;;;;;;32.28;14.40;;;;;;;11.69;66.72;99593.81;10315681;28;20054;-64
2024/03/04 07:19:36;;;;;;;30.20;13.63;;;;;;;11.63;67.05;99601.84;10310189;28;20086;-63
2024/03/04 07:24:38;;;;;;;33.03;15.00;;;;;;;11.70;66.47;99603.53;10315763;28;20058;-63
2024/03/04 07:29:39;;;;;;;40.13;16.85;;;;;;;11.95;65.76;99604.88;10315483;28;20057;-62
2024/03/04 07:34:49;;;;;;;33.42;15.25;;;;;;;12.00;66.13;99605.13;10309860;28;20047;-63
2024/03/04 07:39:50;;;;;;;41.25;16.85;;;;;;;12.02;65.71;99609.25;10310095;28;20054;-61
2024/03/04 07:44:51;;;;;;;34.92;15.50;;;;;;;11.93;65.98;99620.41;10313896;28;20051;-62
2024/03/04 07:49:53;;;;;;;40.05;15.93;;;;;;;12.06;65.42;99617.75;10307132;28;20513;-65
2024/03/04 07:54:54;;;;;;;35.00;16.40;;;;;;;12.03;65.84;99616.31;10312831;28;20133;-59
2024/03/04 07:59:56;;;;;;;39.03;16.45;;;;;;;12.07;65.97;99631.03;10310456;28;23292;-61
2024/03/04 08:04:58;;;;;;;39.55;15.77;;;;;;;12.04;65.68;99641.38;10310614;28;20109;-62
2024/03/04 08:09:59;;;;;;;39.72;17.20;;;;;;;11.96;65.96;99641.56;10306470;28;20422;-62
2024/03/04 08:15:03;;;;;;;37.75;16.23;;;;;;;11.95;66.00;99640.75;10303016;28;20050;-60
2024/03/04 08:20:05;;;;;;;42.78;17.52;;;;;;;12.01;66.10;99642.63;10302309;28;20309;-60
2024/03/04 08:25:17;;;;;;;36.38;16.95;;;;;;;12.19;65.25;99638.53;10301508;28;20051;-61
2024/03/04 08:30:19;;;;;;;36.65;16.67;;;;;;;12.30;64.85;99646.84;10301970;28;20137;-60
2024/03/04 08:35:20;;;;;;;41.15;16.83;;;;;;;12.38;64.91;99653.91;10306553;28;20057;-60
2024/03/04 08:40:22;;;;;;;40.80;17.25;;;;;;;12.49;64.80;99653.28;10292468;28;20134;-61
2024/03/04 08:45:23;;;;;;;38.00;17.08;;;;;;;12.65;64.35;99660.13;10299205;28;20074;-63
2024/03/04 08:50:25;;;;;;;41.88;17.83;;;;;;;12.62;64.33;99665.13;10300650;28;20637;-62
2024/03/04 08:55:27;;;;;;;40.42;17.88;;;;;;;12.45;64.97;99668.22;10303160;28;20057;-62
2024/03/04 09:00:29;;;;;;;42.33;17.45;;;;;;;12.36;65.35;99674.00;10302732;28;20082;-64
2024/03/04 09:05:31;;;;;;;44.47;17.13;;;;;;;12.30;65.33;99681.03;10304999;28;20046;-63
2024/03/04 09:10:33;;;;;;;41.10;18.13;;;;;;;12.45;65.28;99679.00;10302649;28;20049;-62
2024/03/04 09:15:37;;;;;;;44.47;17.60;;;;;;;12.52;64.64;99680.88;10285099;28;20105;-63
2024/03/04 09:20:38;;;;;;;39.70;17.83;;;;;;;12.46;64.75;99682.50;10299213;28;20141;-62
2024/03/04 09:25:40;;;;;;;37.28;17.13;;;;;;;12.40;65.00;99688.72;10283109;28;20409;-63
2024/03/04 09:30:43;;;;;;;40.45;17.10;;;;;;;12.67;64.14;99692.31;10297007;28;20149;-62
2024/03/04 09:35:47;;;;;;;41.88;16.67;;;;;;;12.72;64.07;99687.13;10274603;28;20428;-62
2024/03/04 09:40:52;;;;;;;41.28;18.50;;;;;;;13.01;63.95;99679.66;10297386;28;20078;-62
2024/03/04 09:45:54;;;;;;;35.92;15.98;;;;;;;13.02;63.44;99684.84;10292142;28;20509;-63
2024/03/04 09:51:01;;;;;;;37.50;15.45;;;;;;;13.04;63.41;99692.72;10302622;28;20046;-62
2024/03/04 09:56:04;;;;;;;36.17;16.02;;;;;;;12.94;63.58;99701.25;10310172;28;20146;-61
2024/03/04 10:01:06;;;;;;;35.90;16.13;;;;;;;12.92;63.14;99702.50;10314622;28;20074;-61
2024/03/04 10:06:07;;;;;;;35.20;16.00;;;;;;;12.83;63.17;99709.94;10314430;28;20057;-61
2024/03/04 10:11:09;;;;;;;33.15;15.48;;;;;;;12.79;63.55;99714.91;10307035;28;20137;-61
2024/03/04 10:16:15;;;;;;;33.10;15.35;;;;;;;12.65;63.43;99710.56;10311827;28;20414;-61
2024/03/04 10:21:17;;;;;;;33.58;15.02;;;;;;;12.62;63.34;99716.38;10312264;28;20085;-60
2024/03/04 10:26:18;;;;;;;33.33;15.13;;;;;;;12.67;63.43;99724.66;10309144;28;20062;-61
2024/03/04 10:31:20;;;;;;;33.90;15.73;;;;;;;12.63;63.39;99718.84;10311081;28;20053;-60
2024/03/04 10:36:22;;;;;;;33.22;13.93;;;;;;;12.66;63.00;99726.53;10304782;28;20058;-61
2024/03/04 10:41:23;;;;;;;34.47;14.27;;;;;;;12.55;63.60;99719.03;10309464;28;20050;-60
2024/03/04 10:46:25;;;;;;;32.65;13.75;;;;;;;12.53;63.69;99726.50;10307241;28;20061;-60
2024/03/04 10:51:28;;;;;;;31.88;14.20;;;;;;;12.69;63.03;99734.19;10310457;28;20113;-61
2024/03/04 10:56:34;;;;;;;34.50;14.65;;;;;;;12.72;62.77;99734.81;10309800;28;20097;-61
2024/03/04 11:01:37;;;;;;;29.85;13.45;;;;;;;12.73;63.30;99723.00;10307949;28;20066;-62
2024/03/04 11:06:39;;;;;;;29.85;12.93;;;;;;;12.69;63.07;99727.97;10299594;28;20062;-62
2024/03/04 11:11:52;;;;;;;28.92;14.70;;;;;;;12.75;62.72;99721.75;10312601;28;20409;-62
2024/03/04 11:17:14;;;;;;;28.95;12.10;;;;;;;13.08;61.84;99707.47;10339930;28;20104;-62
2024/03/04 11:22:17;;;;;;;33.50;14.50;;;;;;;13.19;62.11;99719.47;10339872;28;20530;-61
2024/03/04 11:27:22;;;;;;;27.10;12.63;;;;;;;13.21;61.72;99715.56;10334300;28;20375;-61
2024/03/04 11:32:29;;;;;;;26.73;12.02;;;;;;;13.23;62.04;99723.41;10337548;28;20638;-61
2024/03/04 11:37:48;;;;;;;27.83;11.50;;;;;;;13.41;61.23;99717.44;10337804;28;20144;-62
2024/03/04 11:42:50;;;;;;;25.40;11.98;;;;;;;13.58;60.95;99726.72;10359657;28;20097;-64
2024/03/04 11:47:52;;;;;;;29.30;11.70;;;;;;;13.33;61.30;99736.53;10390218;28;20033;-61
2024/03/04 11:52:56;;;;;;;27.77;11.80;;;;;;;13.22;60.99;99746.91;10355811;28;20049;-64
2024/03/04 11:58:00;;;;;;;25.40;11.90;;;;;;;13.28;60.90;99751.44;10375168;28;20060;-65
2024/03/04 12:03:06;;;;;;;23.90;11.18;;;;;;;13.62;60.29;99738.75;10364648;28;20069;-66
2024/03/04 12:08:08;;;;;;;27.23;11.90;;;;;;;13.65;59.96;99741.06;10366824;28;20045;-64
2024/03/04 12:13:34;;;;;;;25.80;12.10;;;;;;;13.60;59.91;99740.84;10349614;28;20578;-62
2024/03/04 12:18:38;;;;;;;28.75;11.82;;;;;;;13.54;60.13;99754.38;10348160;28;20489;-62
2024/03/04 12:23:42;;;;;;;26.50;12.20;;;;;;;13.79;59.49;99754.53;10343841;28;20050;-62
2024/03/04 12:29:00;;;;;;;22.63;10.57;;;;;;;13.80;59.44;99750.78;10342475;28;20057;-63
2024/03/04 12:34:04;;;;;;;24.25;10.75;;;;;;;13.85;59.16;99754.50;10339951;28;20145;-63
2024/03/04 12:39:11;;;;;;;26.88;12.02;;;;;;;13.80;59.04;99745.38;10339951;28;20149;-63
2024/03/04 12:44:18;;;;;;;20.33;10.38;;;;;;;13.74;58.96;99752.44;10343118;28;20164;-61
2024/03/04 12:49:20;;;;;;;26.50;10.40;;;;;;;13.55;59.39;99750.66;10344710;28;20050;-62
2024/03/04 12:54:31;;;;;;;23.02;10.05;;;;;;;13.50;59.21;99753.97;10339197;28;20043;-62
2024/03/04 12:59:33;;;;;;;23.13;10.68;;;;;;;13.54;59.04;99749.78;10342632;28;20058;-61
2024/03/04 13:04:39;;;;;;;21.75;10.73;;;;;;;13.42;59.39;99752.31;10342094;28;20054;-61
2024/03/04 13:09:41;;;;;;;24.25;10.85;;;;;;;13.28;59.34;99758.72;10336986;28;20430;-62
2024/03/04 13:14:43;;;;;;;24.27;9.38;;;;;;;13.33;58.96;99763.53;10345648;28;20085;-65
2024/03/04 13:19:45;;;;;;;23.38;10.00;;;;;;;13.31;58.92;99750.25;10338624;28;20054;-61
2024/03/04 13:24:47;;;;;;;23.15;10.45;;;;;;;13.25;59.20;99759.97;10351314;28;20050;-58
2024/03/04 13:29:49;;;;;;;19.13;10.70;;;;;;;13.19;59.32;99763.53;10352324;28;20054;-59
2024/03/04 13:34:56;;;;;;;19.88;9.18;;;;;;;13.08;59.56;99764.13;10375369;28;20053;-62
2024/03/04 13:40:00;;;;;;;23.38;10.95;;;;;;;13.10;59.33;99757.47;10379239;28;20113;-62
2024/03/04 13:45:03;;;;;;;24.13;10.55;;;;;;;13.14;59.40;99770.56;10384185;28;20141;-62
2024/03/04 13:50:10;;;;;;;23.27;10.20;;;;;;;13.15;59.13;99756.88;10393923;28;20073;-62
2024/03/04 13:55:12;;;;;;;20.23;10.13;;;;;;;13.12;58.94;99756.47;10390008;28;20034;-63
2024/03/04 14:00:17;;;;;;;19.30;9.80;;;;;;;13.16;59.04;99761.22;10395655;28;20408;-63
2024/03/04 14:05:18;;;;;;;20.88;9.73;;;;;;;13.24;58.50;99749.38;10394620;28;20368;-62
2024/03/04 14:10:20;;;;;;;21.02;10.02;;;;;;;13.00;59.21;99756.25;10392282;28;20038;-63
2024/03/04 14:15:21;;;;;;;23.27;10.23;;;;;;;13.03;58.91;99755.81;10386161;28;20094;-62
2024/03/04 14:20:24;;;;;;;21.65;9.95;;;;;;;13.16;58.78;99750.44;10390414;28;20026;-61
2024/03/04 14:25:26;;;;;;;22.73;9.35;;;;;;;13.15;58.83;99747.94;10391647;28;20038;-63
2024/03/04 14:30:30;;;;;;;20.08;8.70;;;;;;;13.16;58.83;99741.50;10389658;28;20068;-61
2024/03/04 14:35:31;;;;;;;24.25;9.88;;;;;;;13.18;58.66;99747.53;10350487;28;20471;-63
2024/03/04 14:40:36;;;;;;;19.67;8.80;;;;;;;13.24;58.60;99744.00;10339091;28;20050;-63
2024/03/04 14:45:37;;;;;;;24.88;9.68;;;;;;;13.17;58.92;99744.00;10337768;28;20058;-63
2024/03/04 14:50:39;;;;;;;21.67;9.07;;;;;;;13.15;58.66;99748.78;10339805;28;20410;-63
2024/03/04 14:55:40;;;;;;;19.15;9.07;;;;;;;13.11;58.68;99750.19;10338061;28;20409;-63
2024/03/04 15:00:42;;;;;;;18.67;9.25;;;;;;;13.01;58.91;99755.19;10334947;28;20054;-63
2024/03/04 15:05:45;;;;;;;21.77;9.52;;;;;;;12.97;58.78;99749.38;10334161;28;20460;-62
2024/03/04 15:10:47;;;;;;;22.15;7.85;;;;;;;12.97;58.82;99756.66;10339485;28;20041;-61
2024/03/04 15:15:48;;;;;;;20.85;8.77;;;;;;;12.95;58.82;99753.31;10334375;28;20060;-62
2024/03/04 15:20:53;;;;;;;18.67;8.75;;;;;;;13.05;58.35;99756.44;10344804;28;20461;-62
2024/03/04 15:25:54;;;;;;;16.60;8.13;;;;;;;12.97;58.64;99760.16;10345934;28;20953;-62
2024/03/04 15:30:56;;;;;;;17.52;7.93;;;;;;;13.05;58.38;99762.69;10344662;28;20505;-61
2024/03/04 15:36:01;;;;;;;16.67;8.73;;;;;;;12.90;58.99;99768.25;10339690;28;20064;-61
2024/03/04 15:41:17;;;;;;;18.20;8.30;;;;;;;12.84;58.96;99768.25;10337067;28;20046;-61
2024/03/04 15:46:23;;;;;;;18.00;7.90;;;;;;;12.87;58.90;99766.00;10366082;28;20053;-61
2024/03/04 15:51:25;;;;;;;18.45;8.07;;;;;;;12.88;58.86;99775.72;10347029;28;20065;-61
2024/03/04 15:56:31;;;;;;;17.88;8.18;;;;;;;12.90;58.84;99775.53;10361294;28;20120;-61
2024/03/04 16:01:32;;;;;;;18.92;9.00;;;;;;;13.04;58.45;99779.06;10379425;28;20068;-61
2024/03/04 16:06:34;;;;;;;18.27;8.55;;;;;;;12.93;58.72;99776.97;10377847;28;20050;-60
2024/03/04 16:11:38;;;;;;;20.30;10.13;;;;;;;12.85;58.42;99781.53;10366546;28;20141;-61
2024/03/04 16:16:40;;;;;;;22.63;9.80;;;;;;;12.81;59.34;99777.56;10365800;28;20105;-60
2024/03/04 16:21:42;;;;;;;25.10;9.48;;;;;;;12.84;58.90;99789.84;10370604;28;20049;-60
2024/03/04 16:26:50;;;;;;;26.20;11.75;;;;;;;12.78;59.09;99801.44;10379405;28;20061;-60
2024/03/04 16:31:55;;;;;;;27.55;10.27;;;;;;;12.85;59.18;99792.31;10356442;28;20072;-61
2024/03/04 16:36:58;;;;;;;23.05;10.77;;;;;;;12.94;58.99;99800.22;10356623;28;20050;-61
2024/03/04 16:42:01;;;;;;;24.33;10.07;;;;;;;12.88;58.87;99794.63;10343325;28;20039;-60
2024/03/04 16:47:03;;;;;;;23.83;10.10;;;;;;;12.83;59.08;99796.25;10348236;28;20136;-61
2024/03/04 16:52:05;;;;;;;25.10;10.27;;;;;;;12.77;59.38;99797.91;10355404;28;20494;-61
2024/03/04 16:57:07;;;;;;;23.95;11.02;;;;;;;12.75;59.73;99796.44;10357390;28;20078;-61
2024/03/04 17:02:09;;;;;;;25.77;10.18;;;;;;;12.71;59.79;99801.41;10357294;28;20065;-62
2024/03/04 17:07:11;;;;;;;25.83;10.55;;;;;;;12.65;59.69;99802.22;10350033;28;20142;-58
2024/03/04 17:12:13;;;;;;;26.85;11.10;;;;;;;12.64;59.50;99803.28;10340889;28;20058;-58
2024/03/04 17:17:15;;;;;;;25.42;11.10;;;;;;;12.59;59.84;99811.97;10334034;28;20711;-58
2024/03/04 17:22:17;;;;;;;29.77;11.52;;;;;;;12.62;59.63;99806.19;10337685;28;20066;-58
2024/03/04 17:27:19;;;;;;;24.77;10.00;;;;;;;12.54;60.10;99817.16;10338221;28;20706;-59
2024/03/04 17:32:21;;;;;;;32.85;11.90;;;;;;;12.48;60.25;99820.66;10335526;28;20066;-58
2024/03/04 17:37:23;;;;;;;26.35;10.68;;;;;;;12.55;59.70;99826.06;10338126;28;20042;-57
2024/03/04 17:42:25;;;;;;;28.13;11.63;;;;;;;12.41;60.50;99826.00;10337681;28;20393;-57
2024/03/04 17:47:27;;;;;;;24.65;10.73;;;;;;;12.23;60.35;99828.41;10337812;28;20442;-57
2024/03/04 17:52:32;;;;;;;26.85;11.45;;;;;;;12.12;61.14;99837.03;10338081;28;20062;-58
2024/03/04 17:57:34;;;;;;;27.25;11.23;;;;;;;12.19;61.23;99838.75;10339639;28;20050;-57
2024/03/04 18:02:35;;;;;;;22.98;10.77;;;;;;;12.24;61.10;99839.00;10338773;28;20061;-58
2024/03/04 18:07:38;;;;;;;25.98;10.30;;;;;;;12.18;61.23;99836.25;10336160;28;20486;-59
2024/03/04 18:12:42;;;;;;;25.60;10.82;;;;;;;12.21;60.83;99834.00;10333820;28;20053;-58
2024/03/04 18:17:44;;;;;;;29.42;11.95;;;;;;;12.18;60.84;99845.16;10335657;28;20046;-58
2024/03/04 18:22:46;;;;;;;29.35;11.60;;;;;;;12.13;61.47;99841.41;10334838;28;20057;-58
2024/03/04 18:27:51;;;;;;;27.70;12.40;;;;;;;12.05;61.37;99847.78;10340863;28;20050;-58
2024/03/04 18:32:53;;;;;;;23.80;10.60;;;;;;;11.97;62.02;99840.69;10342591;28;20056;-58
2024/03/04 18:37:55;;;;;;;28.77;11.55;;;;;;;12.01;61.95;99846.53;10337232;28;20056;-58
2024/03/04 18:42:58;;;;;;;34.58;11.57;;;;;;;12.04;61.40;99841.56;10335892;28;20069;-58
2024/03/04 18:48:00;;;;;;;25.38;10.65;;;;;;;11.85;62.12;99840.38;10338713;28;20073;-58
2024/03/04 18:53:02;;;;;;;25.30;10.60;;;;;;;11.79;62.20;99851.09;10342056;28;20091;-59
2024/03/04 18:58:09;;;;;;;26.60;10.73;;;;;;;11.84;62.04;99843.28;10338710;28;20053;-59
2024/03/04 19:03:11;;;;;;;27.50;11.07;;;;;;;11.99;61.99;99841.34;10334670;28;20058;-59
2024/03/04 19:08:13;;;;;;;29.73;10.27;;;;;;;12.00;61.65;99851.06;10335589;28;20469;-59
2024/03/04 19:13:15;;;;;;;22.48;10.00;;;;;;;11.90;62.06;99856.78;10336264;28;20049;-56
2024/03/04 19:18:24;;;;;;;22.50;9.45;;;;;;;11.93;62.13;99852.91;10341211;28;20129;-57
2024/03/04 19:23:31;;;;;;;25.45;9.38;;;;;;;11.94;62.36;99856.41;10333085;28;20074;-57
2024/03/04 19:28:33;;;;;;;23.13;10.80;;;;;;;12.09;61.54;99866.06;10334331;28;20380;-58
2024/03/04 19:33:35;;;;;;;24.13;9.85;;;;;;;12.12;61.67;99872.91;10323298;28;20058;-57
2024/03/04 19:38:38;;;;;;;24.90;10.63;;;;;;;12.13;61.32;99865.66;10339379;28;20046;-56
2024/03/04 19:43:40;;;;;;;22.42;9.95;;;;;;;12.20;61.66;99866.53;10335234;28;20078;-57
2024/03/04 19:48:43;;;;;;;28.15;11.35;;;;;;;12.08;61.95;99864.41;10334449;28;20056;-58
2024/03/04 19:53:45;;;;;;;25.67;9.55;;;;;;;12.25;61.38;99867.59;10340243;28;20074;-57
2024/03/04 19:58:47;;;;;;;26.48;11.10;;;;;;;12.27;61.17;99870.09;10338462;28;20050;-58
2024/03/04 20:03:51;;;;;;;23.65;9.98;;;;;;;12.32;61.36;99872.19;10338878;28;20049;-56
2024/03/04 20:08:53;;;;;;;25.58;9.80;;;;;;;12.18;61.20;99871.28;10340541;28;20046;-57
2024/03/04 20:13:58;;;;;;;26.80;11.02;;;;;;;12.17;61.46;99875.84;10339427;28;20061;-58
2024/03/04 20:19:00;;;;;;;24.13;10.15;;;;;;;12.23;61.45;99880.44;10340214;28;20141;-56
2024/03/04 20:24:05;;;;;;;20.80;8.63;;;;;;;12.14;61.44;99876.22;10345798;28;20049;-57
2024/03/04 20:29:07;;;;;;;21.50;10.05;;;;;;;12.18;61.41;99880.19;10342770;28;20049;-57
2024/03/04 20:34:12;;;;;;;24.70;10.57;;;;;;;12.32;61.25;99891.88;10346518;28;20137;-58
2024/03/04 20:39:14;;;;;;;28.75;9.25;;;;;;;12.40;61.21;99898.97;10347066;28;20074;-56
2024/03/04 20:44:21;;;;;;;25.38;10.10;;;;;;;12.40;61.13;99894.44;10343135;28;20046;-57
2024/03/04 20:49:23;;;;;;;25.75;10.13;;;;;;;12.42;61.18;99900.47;10342372;28;20045;-56
2024/03/04 20:54:26;;;;;;;24.67;11.30;;;;;;;12.41;61.16;99904.16;10341095;28;20755;-57
2024/03/04 20:59:28;;;;;;;23.88;10.43;;;;;;;12.39;61.04;99903.53;10340963;28;20088;-56
2024/03/04 21:04:30;;;;;;;25.65;10.65;;;;;;;12.41;61.50;99900.66;10340398;28;20057;-58
2024/03/04 21:09:32;;;;;;;27.45;10.43;;;;;;;12.37;61.34;99905.59;10344104;28;20073;-58
2024/03/04 21:14:34;;;;;;;29.33;10.25;;;;;;;12.35;61.43;99907.66;10336648;28;20068;-59
2024/03/04 21:19:37;;;;;;;26.48;10.88;;;;;;;12.36;61.46;99912.03;10336276;28;20054;-56
2024/03/04 21:24:40;;;;;;;26.23;9.98;;;;;;;12.34;61.34;99915.94;10339770;28;20255;-58
2024/03/04 21:29:44;;;;;;;35.03;14.00;;;;;;;12.31;61.51;99914.47;10339322;28;20057;-57
2024/03/04 21:34:47;;;;;;;33.45;13.85;;;;;;;12.26;61.48;99916.94;10338677;28;20062;-56
2024/03/04 21:39:49;;;;;;;34.63;12.57;;;;;;;12.28;61.50;99922.94;10341194;28;20107;-58
2024/03/04 21:44:58;;;;;;;29.15;13.38;;;;;;;12.27;61.56;99924.81;10341347;28;20090;-60
2024/03/04 21:50:01;;;;;;;28.70;11.23;;;;;;;12.27;61.78;99940.16;10336635;28;20058;-60
2024/03/04 21:55:06;;;;;;;25.67;11.07;;;;;;;12.24;62.07;99930.63;10339331;28;20797;-59
2024/03/04 22:00:15;;;;;;;25.95;10.00;;;;;;;12.22;61.66;99935.38;10339369;28;20049;-60
2024/03/04 22:05:17;;;;;;;25.27;10.75;;;;;;;12.23;62.25;99930.81;10336075;28;20132;-60
2024/03/04 22:10:19;;;;;;;27.95;10.50;;;;;;;12.20;62.32;99940.09;10333317;28;20150;-60
2024/03/04 22:15:22;;;;;;;26.95;10.20;;;;;;;12.21;61.89;99939.09;10341053;28;20043;-60
2024/03/04 22:20:24;;;;;;;25.55;10.57;;;;;;;12.21;62.02;99939.09;10335233;28;20069;-60
2024/03/04 22:25:26;;;;;;;24.48;11.15;;;;;;;12.16;62.37;99935.31;10318398;28;20566;-60
2024/03/04 22:30:30;;;;;;;26.63;11.73;;;;;;;12.11;62.60;99941.31;10337143;28;20056;-61
2024/03/04 22:35:32;;;;;;;27.10;10.48;;;;;;;12.00;62.63;99928.34;10336313;28;20050;-60
2024/03/04 22:40:34;;;;;;;29.27;12.35;;;;;;;11.89;62.83;99938.66;10336527;28;20104;-59
2024/03/04 22:45:40;;;;;;;28.30;12.05;;;;;;;11.83;63.33;99936.69;10333559;28;20053;-59
2024/03/04 22:50:45;;;;;;;28.40;12.65;;;;;;;11.80;63.28;99938.94;10337465;28;20054;-58
2024/03/04 22:55:49;;;;;;;29.83;12.65;;;;;;;11.86;63.26;99947.06;10337039;28;20054;-58
2024/03/04 23:01:03;;;;;;;30.23;13.20;;;;;;;11.87;62.77;99951.44;10342542;28;20720;-56